Time;durP1;ratioP1;P1;durP2;ratioP2;P2;SDS_P1;SDS_P2;PMS_P1;PMS_P2;Temp;Humidity;BMP_temperature;BMP_pressure;BME280_temperature;BME280_humidity;BME280_pressure;Samples;Min_cycle;Max_cycle;Signal;HPM_P1;HPM_P2
2022/09/04 00:01:39;;;;;;;6.68;3.28;;;14.50;99.90;;;;;;5008056;28;20620;-65
2022/09/04 00:04:29;;;;;;;7.65;3.85;;;14.50;99.90;;;;;;5033027;28;20886;-65
2022/09/04 00:07:04;;;;;;;8.13;3.72;;;14.50;99.90;;;;;;5031288;28;20025;-64
2022/09/04 00:09:30;;;;;;;10.77;4.15;;;14.60;99.90;;;;;;5031671;28;20025;-64
2022/09/04 00:12:07;;;;;;;8.35;3.88;;;14.50;99.90;;;;;;5029935;28;20025;-64
2022/09/04 00:14:39;;;;;;;7.65;4.20;;;14.60;99.90;;;;;;5026290;28;20028;-64
2022/09/04 00:17:30;;;;;;;7.50;3.90;;;14.60;99.90;;;;;;5032830;28;20048;-64
2022/09/04 00:20:06;;;;;;;8.15;4.20;;;14.60;99.90;;;;;;5032594;28;20046;-63
2022/09/04 00:22:51;;;;;;;8.32;4.00;;;14.50;99.90;;;;;;5026939;28;20033;-64
2022/09/04 00:26:04;;;;;;;8.55;3.95;;;14.50;99.90;;;;;;5031761;28;20045;-64
2022/09/04 00:28:35;;;;;;;7.13;3.55;;;14.40;99.90;;;;;;5004297;28;20496;-64
2022/09/04 00:31:06;;;;;;;10.60;4.30;;;14.40;99.90;;;;;;4998624;28;20032;-64
2022/09/04 00:33:44;;;;;;;7.38;3.83;;;14.40;99.90;;;;;;5017494;28;20033;-64
2022/09/04 00:36:12;;;;;;;8.13;3.70;;;14.30;99.90;;;;;;5029876;28;20049;-64
2022/09/04 00:38:50;;;;;;;8.18;4.05;;;14.30;99.90;;;;;;5028919;28;20349;-64
2022/09/04 00:41:19;;;;;;;11.35;4.32;;;14.30;99.90;;;;;;5034813;28;20044;-64
2022/09/04 00:44:22;;;;;;;7.38;3.90;;;14.30;99.90;;;;;;5031336;28;20028;-64
2022/09/04 00:47:24;;;;;;;8.55;4.38;;;14.30;99.90;;;;;;5028813;28;20061;-64
2022/09/04 00:50:06;;;;;;;7.45;3.80;;;14.20;99.90;;;;;;5031146;28;20036;-65
2022/09/04 00:53:03;;;;;;;8.68;4.10;;;14.30;99.90;;;;;;5031619;28;20033;-64
2022/09/04 00:55:52;;;;;;;8.82;4.22;;;14.20;99.90;;;;;;5028143;28;20067;-64
2022/09/04 00:58:47;;;;;;;8.52;3.88;;;14.20;99.90;;;;;;5028344;28;20030;-64
2022/09/04 01:01:21;;;;;;;9.48;4.20;;;14.30;99.90;;;;;;5031687;28;20037;-64
2022/09/04 01:04:32;;;;;;;7.93;3.90;;;14.30;99.90;;;;;;5030880;28;20034;-64
2022/09/04 01:07:22;;;;;;;11.27;4.40;;;14.30;99.90;;;;;;5021089;28;20088;-64
2022/09/04 01:10:22;;;;;;;8.05;3.65;;;14.30;99.90;;;;;;5021997;28;20525;-64
2022/09/04 01:13:02;;;;;;;7.67;3.80;;;14.20;99.90;;;;;;5028692;28;20026;-64
2022/09/04 01:15:44;;;;;;;8.75;3.42;;;14.10;99.90;;;;;;5030728;28;20363;-64
2022/09/04 01:18:28;;;;;;;9.13;4.13;;;14.30;99.90;;;;;;5026843;28;20479;-64
2022/09/04 01:21:23;;;;;;;7.72;3.88;;;14.30;99.90;;;;;;5026661;28;20053;-64
2022/09/04 01:24:18;;;;;;;7.13;3.80;;;14.30;99.90;;;;;;5027453;28;20551;-64
2022/09/04 01:26:55;;;;;;;7.50;4.03;;;14.30;99.90;;;;;;5018563;28;20113;-64
2022/09/04 01:29:39;;;;;;;7.75;4.00;;;14.40;99.90;;;;;;5028974;28;20034;-64
2022/09/04 01:32:18;;;;;;;10.02;4.13;;;14.40;99.90;;;;;;5026743;28;20084;-64
2022/09/04 01:35:18;;;;;;;7.27;3.83;;;14.30;99.90;;;;;;5031293;28;20227;-64
2022/09/04 01:37:47;;;;;;;9.88;4.07;;;14.20;99.90;;;;;;5026850;28;20469;-64
2022/09/04 01:40:34;;;;;;;7.25;3.65;;;14.20;99.90;;;;;;5026111;28;20017;-64
2022/09/04 01:43:10;;;;;;;8.77;3.80;;;14.10;99.90;;;;;;5050127;28;20029;-64
2022/09/04 01:45:51;;;;;;;9.27;4.15;;;14.00;99.90;;;;;;5024881;28;20025;-64
2022/09/04 01:48:25;;;;;;;9.93;4.00;;;14.00;99.90;;;;;;5030073;28;20009;-64
2022/09/04 01:50:55;;;;;;;7.88;4.30;;;13.90;99.90;;;;;;5031011;28;20516;-64
2022/09/04 01:53:25;;;;;;;8.73;3.92;;;13.80;99.90;;;;;;5042871;28;20048;-64
2022/09/04 01:56:15;;;;;;;10.15;4.28;;;13.70;99.90;;;;;;5030517;28;20059;-64
2022/09/04 01:58:56;;;;;;;8.43;4.20;;;13.60;99.90;;;;;;5029611;28;20044;-64
2022/09/04 02:01:22;;;;;;;8.57;4.38;;;13.60;99.90;;;;;;5028975;28;20029;-64
2022/09/04 02:04:06;;;;;;;8.98;4.18;;;13.50;99.90;;;;;;5029171;28;20035;-63
2022/09/04 02:06:45;;;;;;;7.88;4.38;;;13.40;99.90;;;;;;5028922;28;20021;-64
2022/09/04 02:09:36;;;;;;;10.35;5.00;;;13.40;99.90;;;;;;5028127;28;20093;-64
2022/09/04 02:12:07;;;;;;;;;;;13.40;99.90;;;;;;5023083;28;20028;-64
2022/09/04 02:14:39;;;;;;;9.13;4.35;;;13.40;99.90;;;;;;5023856;28;20332;-64
2022/09/04 02:17:31;;;;;;;9.00;4.50;;;13.40;99.90;;;;;;5026741;28;20021;-65
2022/09/04 02:20:06;;;;;;;8.68;4.50;;;13.30;99.90;;;;;;5020827;28;20116;-64
2022/09/04 02:22:31;;;;;;;7.85;4.32;;;13.30;99.90;;;;;;5028740;28;20451;-64
2022/09/04 02:25:18;;;;;;;9.73;4.90;;;13.20;99.90;;;;;;5035898;28;20129;-64
2022/09/04 02:28:05;;;;;;;9.63;4.78;;;13.20;99.90;;;;;;5023999;28;20485;-64
2022/09/04 02:30:43;;;;;;;8.70;4.65;;;13.10;99.90;;;;;;5027619;28;20049;-64
2022/09/04 02:33:46;;;;;;;9.55;5.22;;;13.10;99.90;;;;;;5027941;28;20033;-64
2022/09/04 02:36:34;;;;;;;8.90;5.05;;;13.10;99.90;;;;;;5028279;28;20041;-64
2022/09/04 02:39:29;;;;;;;13.23;4.82;;;13.10;99.90;;;;;;5023172;28;20025;-64
2022/09/04 02:42:02;;;;;;;10.65;4.90;;;13.10;99.90;;;;;;5023111;28;20029;-64
2022/09/04 02:44:50;;;;;;;11.73;4.80;;;13.20;99.90;;;;;;5028166;28;20024;-64
2022/09/04 02:47:56;;;;;;;8.88;4.32;;;13.20;99.90;;;;;;5030125;28;20505;-64
2022/09/04 02:50:39;;;;;;;9.75;4.65;;;13.20;99.90;;;;;;5030879;28;20117;-64
2022/09/04 02:53:42;;;;;;;12.32;4.63;;;13.20;99.90;;;;;;5030365;28;20444;-64
2022/09/04 02:56:45;;;;;;;11.25;5.03;;;13.20;99.90;;;;;;5031938;28;20029;-64
2022/09/04 02:59:35;;;;;;;11.77;4.65;;;13.20;99.90;;;;;;5031735;28;20098;-64
2022/09/04 03:02:09;;;;;;;10.82;5.13;;;13.30;99.90;;;;;;5025352;28;20040;-64
2022/09/04 03:05:00;;;;;;;9.60;5.32;;;13.20;99.90;;;;;;5028902;28;20036;-64
2022/09/04 03:07:32;;;;;;;9.35;4.97;;;13.20;99.90;;;;;;5040583;28;20745;-64
2022/09/04 03:10:14;;;;;;;9.90;4.38;;;13.20;99.90;;;;;;5028039;28;20028;-64
2022/09/04 03:13:07;;;;;;;8.40;4.40;;;13.20;99.90;;;;;;5025585;28;20022;-64
2022/09/04 03:15:44;;;;;;;10.32;4.50;;;13.30;99.90;;;;;;5024725;28;20109;-63
2022/09/04 03:18:15;;;;;;;8.93;4.40;;;13.40;99.90;;;;;;5026254;28;20075;-64
2022/09/04 03:20:50;;;;;;;8.68;4.80;;;13.40;99.90;;;;;;5028200;28;20045;-64
2022/09/04 03:23:20;;;;;;;10.90;4.97;;;13.40;99.90;;;;;;5028780;28;20764;-64
2022/09/04 03:25:59;;;;;;;9.43;4.57;;;13.40;99.90;;;;;;5031444;28;20934;-64
2022/09/04 03:28:54;;;;;;;10.63;4.72;;;13.40;99.90;;;;;;5026122;28;20017;-64
2022/09/04 03:31:29;;;;;;;8.30;4.63;;;13.40;99.90;;;;;;5027974;28;20342;-64
2022/09/04 03:34:09;;;;;;;9.60;4.32;;;13.40;99.90;;;;;;5047433;28;20584;-64
2022/09/04 03:37:11;;;;;;;9.38;5.00;;;13.50;99.90;;;;;;5032142;28;20049;-64
2022/09/04 03:40:06;;;;;;;9.43;4.57;;;13.50;99.90;;;;;;5027620;28;20038;-64
2022/09/04 03:43:10;;;;;;;9.07;4.47;;;13.60;99.90;;;;;;5029139;28;20108;-64
2022/09/04 03:45:48;;;;;;;9.43;4.40;;;13.80;99.90;;;;;;5030177;28;20026;-64
2022/09/04 03:48:35;;;;;;;8.70;4.88;;;13.70;99.90;;;;;;5032115;28;20455;-64
2022/09/04 03:51:09;;;;;;;9.32;4.97;;;13.70;99.90;;;;;;5029920;28;20030;-64
2022/09/04 03:53:50;;;;;;;7.75;4.10;;;13.70;99.90;;;;;;5026900;28;20026;-63
2022/09/04 03:56:34;;;;;;;9.48;4.70;;;13.70;99.90;;;;;;5031706;28;20534;-64
2022/09/04 03:59:04;;;;;;;9.40;4.82;;;13.70;99.90;;;;;;5032041;28;20033;-64
2022/09/04 04:01:32;;;;;;;;;;;13.60;99.90;;;;;;5031951;28;20032;-63
2022/09/04 04:04:19;;;;;;;8.60;4.60;;;13.70;99.90;;;;;;5027995;28;19987;-64
2022/09/04 04:07:18;;;;;;;10.25;4.22;;;13.80;99.90;;;;;;5031235;28;20056;-64
2022/09/04 04:09:53;;;;;;;8.60;4.18;;;14.10;99.90;;;;;;5031494;28;20014;-64
2022/09/04 04:12:26;;;;;;;12.18;4.93;;;14.30;99.90;;;;;;5022413;28;20087;-63
2022/09/04 04:15:17;;;;;;;8.00;4.10;;;14.40;99.90;;;;;;5029985;28;20112;-64
2022/09/04 04:18:14;;;;;;;8.90;4.30;;;14.70;99.90;;;;;;5029438;28;20017;-64
2022/09/04 04:21:04;;;;;;;8.95;3.85;;;14.70;99.90;;;;;;5027311;28;20041;-64
2022/09/04 04:24:06;;;;;;;8.83;4.73;;;14.90;99.90;;;;;;5028908;28;20584;-64
2022/09/04 04:27:12;;;;;;;8.65;4.55;;;14.90;99.90;;;;;;5027696;28;20251;-63
2022/09/04 04:29:59;;;;;;;11.35;4.60;;;14.70;99.90;;;;;;5027519;28;20124;-64
2022/09/04 04:32:43;;;;;;;11.05;4.55;;;14.50;99.90;;;;;;5022857;28;20057;-64
2022/09/04 04:35:31;;;;;;;9.35;4.15;;;14.30;99.90;;;;;;5029973;28;20033;-64
2022/09/04 04:38:03;;;;;;;9.65;4.53;;;14.30;99.90;;;;;;5027549;28;20036;-64
2022/09/04 04:40:59;;;;;;;8.70;4.78;;;14.20;99.90;;;;;;5027781;28;20025;-64
2022/09/04 04:43:42;;;;;;;7.80;4.20;;;14.10;99.90;;;;;;5026956;28;20033;-64
2022/09/04 04:46:45;;;;;;;10.00;4.50;;;13.90;99.90;;;;;;5027412;28;20018;-64
2022/09/04 04:49:40;;;;;;;9.25;4.70;;;13.80;99.90;;;;;;5029406;28;20056;-64
2022/09/04 04:52:22;;;;;;;8.88;4.32;;;13.60;99.90;;;;;;5024840;28;20021;-64
2022/09/04 04:55:20;;;;;;;8.60;4.53;;;13.50;99.90;;;;;;5028545;28;20021;-64
2022/09/04 04:58:04;;;;;;;9.65;4.97;;;13.40;99.90;;;;;;5028007;28;20570;-64
2022/09/04 05:01:14;;;;;;;9.70;4.50;;;13.30;99.90;;;;;;5030762;28;20026;-63
2022/09/04 05:04:10;;;;;;;9.20;4.60;;;13.30;99.90;;;;;;5041913;28;20033;-64
2022/09/04 05:06:46;;;;;;;11.38;4.55;;;13.30;99.90;;;;;;5027254;28;20018;-64
2022/09/04 05:09:33;;;;;;;11.55;5.00;;;13.30;99.90;;;;;;5033846;28;20025;-64
2022/09/04 05:12:05;;;;;;;9.68;4.65;;;13.30;99.90;;;;;;5024579;28;20060;-64
2022/09/04 05:14:49;;;;;;;10.82;5.10;;;13.30;99.90;;;;;;5029578;28;20025;-64
2022/09/04 05:17:30;;;;;;;9.45;4.90;;;13.40;99.90;;;;;;5023805;28;20018;-63
2022/09/04 05:20:29;;;;;;;9.75;4.80;;;13.40;99.90;;;;;;5027805;28;20033;-64
2022/09/04 05:23:04;;;;;;;9.60;4.68;;;13.50;99.90;;;;;;5026864;28;20022;-64
2022/09/04 05:25:56;;;;;;;11.45;5.20;;;13.50;99.90;;;;;;5030787;28;20406;-64
2022/09/04 05:28:42;;;;;;;9.02;4.63;;;13.60;99.90;;;;;;5028761;28;20453;-64
2022/09/04 05:31:44;;;;;;;9.63;5.20;;;13.60;99.90;;;;;;5028004;28;20018;-64
2022/09/04 05:34:47;;;;;;;10.07;5.22;;;13.60;99.90;;;;;;5027507;28;20497;-64
2022/09/04 05:37:26;;;;;;;9.32;4.95;;;13.60;99.90;;;;;;5043768;28;20029;-64
2022/09/04 05:40:11;;;;;;;9.75;5.25;;;13.70;99.90;;;;;;5026168;28;20029;-64
2022/09/04 05:42:50;;;;;;;9.30;5.05;;;13.90;99.90;;;;;;5029750;28;20029;-64
2022/09/04 05:45:31;;;;;;;8.95;4.82;;;14.00;99.90;;;;;;5028097;28;20022;-64
2022/09/04 05:48:25;;;;;;;9.77;4.85;;;14.20;99.90;;;;;;5030291;28;20025;-64
2022/09/04 05:50:59;;;;;;;9.52;5.03;;;14.30;99.90;;;;;;5028654;28;20024;-64
2022/09/04 05:53:49;;;;;;;9.40;5.00;;;14.40;99.90;;;;;;5029756;28;20033;-64
2022/09/04 05:56:29;;;;;;;7.78;4.30;;;14.50;99.90;;;;;;5028733;28;20029;-64
2022/09/04 05:58:58;;;;;;;;;;;14.70;99.90;;;;;;5028249;28;20040;-64
2022/09/04 06:02:11;;;;;;;8.55;4.45;;;14.90;99.90;;;;;;5026127;28;19946;-64
2022/09/04 06:05:03;;;;;;;8.65;4.63;;;15.10;99.90;;;;;;5028194;28;20048;-64
2022/09/04 06:07:36;;;;;;;7.82;4.07;;;15.40;99.90;;;;;;5027827;28;20036;-64
2022/09/04 06:10:23;;;;;;;8.82;4.25;;;15.60;99.90;;;;;;5028686;28;20029;-63
2022/09/04 06:13:20;;;;;;;8.75;4.70;;;15.90;99.90;;;;;;5027940;28;20023;-64
2022/09/04 06:15:46;;;;;;;10.82;4.25;;;16.20;99.90;;;;;;5027655;28;20571;-64
2022/09/04 06:18:29;;;;;;;8.68;3.90;;;16.30;99.90;;;;;;5029828;28;20092;-64
2022/09/04 06:21:30;;;;;;;9.50;3.90;;;16.60;99.90;;;;;;5022062;28;20045;-65
2022/09/04 06:24:17;;;;;;;8.55;3.70;;;16.90;99.90;;;;;;5026601;28;20056;-64
2022/09/04 06:27:08;;;;;;;8.00;3.95;;;17.10;99.90;;;;;;5029602;28;20045;-64
2022/09/04 06:29:47;;;;;;;10.57;3.63;;;17.30;99.90;;;;;;5023324;28;20053;-64
2022/09/04 06:32:21;;;;;;;7.57;3.42;;;17.40;99.90;;;;;;5025930;28;20045;-64
2022/09/04 06:35:08;;;;;;;7.80;3.85;;;17.60;99.90;;;;;;5027097;28;20025;-64
2022/09/04 06:37:52;;;;;;;10.80;3.42;;;17.80;99.90;;;;;;5023213;28;20025;-64
2022/09/04 06:40:58;;;;;;;8.40;3.53;;;17.90;99.90;;;;;;5024938;28;20018;-64
2022/09/04 06:43:49;;;;;;;7.78;3.47;;;18.10;99.90;;;;;;5028666;28;20021;-64
2022/09/04 06:46:26;;;;;;;7.40;3.30;;;18.20;99.90;;;;;;5028336;28;20025;-64
2022/09/04 06:49:14;;;;;;;8.25;4.00;;;18.20;99.90;;;;;;5028320;28;20022;-64
2022/09/04 06:51:52;;;;;;;7.45;3.65;;;18.30;99.90;;;;;;5028287;28;20026;-64
2022/09/04 06:54:40;;;;;;;8.23;3.40;;;18.30;99.90;;;;;;5022519;28;20021;-64
2022/09/04 06:57:12;;;;;;;7.95;3.55;;;18.50;99.90;;;;;;5041671;28;20029;-64
2022/09/04 06:59:40;;;;;;;8.10;3.63;;;18.60;99.90;;;;;;5025955;28;20030;-63
2022/09/04 07:02:25;;;;;;;10.73;3.38;;;18.60;99.90;;;;;;5027925;28;20040;-63
2022/09/04 07:05:09;;;;;;;7.95;4.03;;;18.60;99.90;;;;;;5028637;28;20021;-63
2022/09/04 07:07:53;;;;;;;7.30;3.22;;;18.80;99.90;;;;;;5030917;28;20053;-64
2022/09/04 07:10:30;;;;;;;8.52;3.40;;;18.90;99.90;;;;;;5031441;28;20021;-64
2022/09/04 07:13:26;;;;;;;8.38;3.40;;;19.00;99.90;;;;;;5027809;28;20057;-64
2022/09/04 07:16:04;;;;;;;8.55;3.08;;;19.00;99.90;;;;;;5027960;28;20037;-65
2022/09/04 07:18:57;;;;;;;8.52;3.28;;;19.00;99.90;;;;;;5031304;28;20042;-65
2022/09/04 07:21:23;;;;;;;7.45;3.38;;;19.00;99.90;;;;;;5030375;28;20136;-64
2022/09/04 07:24:01;;;;;;;8.80;3.30;;;19.10;99.90;;;;;;5033223;28;20136;-64
2022/09/04 07:26:38;;;;;;;7.05;3.55;;;19.20;99.90;;;;;;5030454;28;20009;-64
2022/09/04 07:29:32;;;;;;;7.32;3.20;;;19.40;99.90;;;;;;5044876;28;20049;-64
2022/09/04 07:32:09;;;;;;;6.40;3.00;;;19.50;99.90;;;;;;5029026;28;20029;-64
2022/09/04 07:35:06;;;;;;;9.77;3.00;;;19.70;99.90;;;;;;5030374;28;20025;-64
2022/09/04 07:38:00;;;;;;;7.45;3.25;;;19.80;99.90;;;;;;5030496;28;20082;-65
2022/09/04 07:40:42;;;;;;;8.70;3.05;;;19.90;99.90;;;;;;5029919;28;20127;-65
2022/09/04 07:43:14;;;;;;;9.13;3.00;;;20.00;99.90;;;;;;5042781;28;20025;-65
2022/09/04 07:45:53;;;;;;;8.63;3.10;;;20.10;99.90;;;;;;5031479;28;20104;-65
2022/09/04 07:48:34;;;;;;;6.90;3.00;;;20.10;99.90;;;;;;5032341;28;20032;-65
2022/09/04 07:51:03;;;;;;;7.40;3.20;;;20.30;99.90;;;;;;5029365;28;20480;-65
2022/09/04 07:53:47;;;;;;;7.70;3.00;;;20.50;99.90;;;;;;5032184;28;20033;-65
2022/09/04 07:56:22;;;;;;;7.50;3.35;;;20.70;99.90;;;;;;5028348;28;20064;-65
2022/09/04 07:59:20;;;;;;;6.95;3.08;;;20.90;99.90;;;;;;5028665;28;20030;-63
2022/09/04 08:02:05;;;;;;;9.20;3.30;;;21.00;99.90;;;;;;5041623;28;20124;-63
2022/09/04 08:05:11;;;;;;;7.72;3.25;;;21.30;99.90;;;;;;5029876;28;20218;-63
2022/09/04 08:07:39;;;;;;;7.32;3.20;;;21.50;99.90;;;;;;5023435;28;20448;-65
2022/09/04 08:10:30;;;;;;;7.32;3.10;;;21.50;99.90;;;;;;5031320;28;20033;-66
2022/09/04 08:13:32;;;;;;;5.70;2.60;;;21.80;99.90;;;;;;5043676;28;20048;-62
2022/09/04 08:16:46;;;;;;;5.70;2.67;;;21.90;99.90;;;;;;5018680;28;20577;-63
2022/09/04 08:19:26;;;;;;;6.07;2.70;;;21.70;99.90;;;;;;5028572;28;20049;-63
2022/09/04 08:21:54;;;;;;;6.75;2.90;;;21.90;99.90;;;;;;5024169;28;20108;-63
2022/09/04 08:24:52;;;;;;;5.82;2.60;;;22.50;99.90;;;;;;5031519;28;20120;-63
2022/09/04 08:27:33;;;;;;;7.68;3.72;;;23.20;99.90;;;;;;5029086;28;20057;-63
2022/09/04 08:30:09;;;;;;;6.72;2.80;;;23.90;99.90;;;;;;5026602;28;20037;-63
2022/09/04 08:32:38;;;;;;;6.65;2.67;;;24.30;99.90;;;;;;5026175;28;20033;-63
2022/09/04 08:35:12;;;;;;;7.10;2.33;;;24.50;99.90;;;;;;5031164;28;20021;-63
2022/09/04 08:38:08;;;;;;;5.72;2.30;;;24.70;99.90;;;;;;5043151;28;20029;-63
2022/09/04 08:41:18;;;;;;;7.22;2.90;;;24.50;99.90;;;;;;5025987;28;20033;-63
2022/09/04 08:43:56;;;;;;;5.80;2.40;;;25.10;99.90;;;;;;5020682;28;20043;-63
2022/09/04 08:46:47;;;;;;;6.28;2.80;;;25.10;99.90;;;;;;5022709;28;20319;-63
2022/09/04 08:49:43;;;;;;;6.07;2.50;;;25.40;99.90;;;;;;5026702;28;20069;-63
2022/09/04 08:52:32;;;;;;;5.82;2.40;;;26.10;99.90;;;;;;5023785;28;20029;-63
2022/09/04 08:54:59;;;;;;;5.53;2.33;;;26.70;99.00;;;;;;5017574;28;20568;-63
2022/09/04 08:57:28;;;;;;;7.22;2.50;;;26.30;98.90;;;;;;5027109;28;20061;-63
2022/09/04 09:00:19;;;;;;;6.72;3.00;;;26.80;98.80;;;;;;5025901;28;20018;-64
2022/09/04 09:02:58;;;;;;;7.05;2.45;;;27.00;97.60;;;;;;5026558;28;20083;-63
2022/09/04 09:05:49;;;;;;;6.00;2.50;;;27.70;96.40;;;;;;5026082;28;20022;-63
2022/09/04 09:08:33;;;;;;;5.80;2.40;;;27.60;96.10;;;;;;5027601;28;20392;-63
2022/09/04 09:11:35;;;;;;;7.13;2.42;;;28.30;95.10;;;;;;5023534;28;20017;-64
2022/09/04 09:14:28;;;;;;;6.70;2.45;;;27.80;95.50;;;;;;5026864;28;20112;-63
2022/09/04 09:17:15;;;;;;;6.22;2.42;;;27.90;95.30;;;;;;5025988;28;20033;-63
2022/09/04 09:20:04;;;;;;;6.25;2.47;;;27.50;95.80;;;;;;5024521;28;20348;-63
2022/09/04 09:22:56;;;;;;;5.57;2.40;;;28.60;94.50;;;;;;5025251;28;20103;-63
2022/09/04 09:25:48;;;;;;;5.70;2.20;;;28.30;94.50;;;;;;5025932;28;20461;-63
2022/09/04 09:28:33;;;;;;;6.00;2.60;;;29.00;93.00;;;;;;5028312;28;20477;-63
2022/09/04 09:31:41;;;;;;;5.90;2.60;;;28.80;93.00;;;;;;5024826;28;20025;-63
2022/09/04 09:34:25;;;;;;;5.43;2.30;;;28.80;93.00;;;;;;5015274;28;20042;-64
2022/09/04 09:37:15;;;;;;;5.80;2.50;;;29.20;92.50;;;;;;5024546;28;20541;-64
2022/09/04 09:39:40;;;;;;;;;;;29.00;92.30;;;;;;5027369;28;20032;-63
2022/09/04 09:42:36;;;;;;;6.88;2.75;;;28.60;92.80;;;;;;5026508;28;20296;-64
2022/09/04 09:45:20;;;;;;;6.18;2.60;;;29.10;92.40;;;;;;5021219;28;20029;-63
2022/09/04 09:48:30;;;;;;;5.93;2.53;;;29.80;91.30;;;;;;5028356;28;20122;-64
2022/09/04 09:51:35;;;;;;;6.00;2.60;;;30.70;90.00;;;;;;5022017;28;20042;-63
2022/09/04 09:54:42;;;;;;;5.80;2.80;;;30.20;90.30;;;;;;5021833;28;20128;-64
2022/09/04 09:57:23;;;;;;;7.30;2.95;;;30.30;89.70;;;;;;5029616;28;20412;-64
2022/09/04 09:59:54;;;;;;;6.10;2.60;;;30.20;89.70;;;;;;5020812;28;20077;-64
2022/09/04 10:02:26;;;;;;;7.70;3.08;;;30.60;89.80;;;;;;5023888;28;20032;-64
2022/09/04 10:05:18;;;;;;;8.27;3.38;;;30.60;87.10;;;;;;5023965;28;20017;-63
2022/09/04 10:08:21;;;;;;;6.85;2.30;;;31.00;84.90;;;;;;5025266;28;20025;-64
2022/09/04 10:10:53;;;;;;;6.65;2.80;;;31.60;84.70;;;;;;5024278;28;20436;-64
2022/09/04 10:13:49;;;;;;;6.28;2.80;;;32.40;82.70;;;;;;5025001;28;20045;-64
2022/09/04 10:16:30;;;;;;;5.78;2.58;;;32.40;81.40;;;;;;5024057;28;20029;-64
2022/09/04 10:19:27;;;;;;;6.10;2.70;;;32.60;80.70;;;;;;5044170;28;20021;-63
2022/09/04 10:22:11;;;;;;;7.18;2.72;;;32.00;82.70;;;;;;5025048;28;20041;-64
2022/09/04 10:24:46;;;;;;;7.45;2.78;;;31.90;81.60;;;;;;5026126;28;20026;-64
2022/09/04 10:27:45;;;;;;;7.38;2.72;;;32.70;79.80;;;;;;5026381;28;20071;-64
2022/09/04 10:30:22;;;;;;;7.00;2.78;;;32.70;79.70;;;;;;5026157;28;20143;-64
2022/09/04 10:33:24;;;;;;;5.45;2.53;;;33.60;78.20;;;;;;5025426;28;20029;-63
2022/09/04 10:36:03;;;;;;;7.07;3.00;;;33.30;78.10;;;;;;5007326;28;20037;-63
2022/09/04 10:38:37;;;;;;;5.90;2.80;;;32.00;79.40;;;;;;5025463;28;20230;-63
2022/09/04 10:41:14;;;;;;;8.32;2.85;;;31.20;81.30;;;;;;5025043;28;20028;-63
2022/09/04 10:43:58;;;;;;;7.18;3.30;;;31.50;81.90;;;;;;5024101;28;20025;-63
2022/09/04 10:46:38;;;;;;;10.10;3.28;;;31.00;81.60;;;;;;5027101;28;20025;-63
2022/09/04 10:49:34;;;;;;;8.93;2.92;;;31.50;81.50;;;;;;5024457;28;20069;-63
2022/09/04 10:52:15;;;;;;;9.15;2.83;;;31.00;81.40;;;;;;5021005;28;20033;-63
2022/09/04 10:55:15;;;;;;;6.75;3.22;;;29.20;85.10;;;;;;5027153;28;20021;-63
2022/09/04 10:57:58;;;;;;;9.80;3.47;;;28.30;88.10;;;;;;5026175;28;20512;-63
2022/09/04 11:01:02;;;;;;;6.72;3.08;;;28.00;89.20;;;;;;5036952;28;20018;-63
2022/09/04 11:03:37;;;;;;;5.45;2.65;;;27.50;90.10;;;;;;5016346;28;20525;-63
2022/09/04 11:06:11;;;;;;;6.82;3.00;;;28.30;89.90;;;;;;5026327;28;20029;-63
2022/09/04 11:08:49;;;;;;;6.57;2.95;;;29.40;86.50;;;;;;5021552;28;20025;-63
2022/09/04 11:11:51;;;;;;;8.45;2.95;;;28.60;87.40;;;;;;5037677;28;20026;-63
2022/09/04 11:14:20;;;;;;;7.32;3.55;;;28.10;88.80;;;;;;5011209;28;20032;-63
2022/09/04 11:17:00;;;;;;;6.60;3.10;;;27.90;90.00;;;;;;5023681;28;20369;-63
2022/09/04 11:19:59;;;;;;;6.72;3.25;;;27.60;90.90;;;;;;5024794;28;20025;-63
2022/09/04 11:22:43;;;;;;;6.93;3.40;;;27.40;90.90;;;;;;5026178;28;20041;-63
2022/09/04 11:25:54;;;;;;;8.20;3.35;;;27.50;91.10;;;;;;5023714;28;20017;-63
2022/09/04 11:28:57;;;;;;;7.60;3.53;;;28.30;90.70;;;;;;5020987;28;20076;-63
2022/09/04 11:31:58;;;;;;;5.93;2.90;;;29.10;89.10;;;;;;5025773;28;20100;-63
2022/09/04 11:34:55;;;;;;;9.45;3.00;;;30.70;85.40;;;;;;5004237;28;20029;-63
2022/09/04 11:37:39;;;;;;;8.45;2.90;;;32.00;80.70;;;;;;5028280;28;20484;-63
2022/09/04 11:40:31;;;;;;;6.63;2.97;;;33.70;76.80;;;;;;5023576;28;20381;-63
2022/09/04 11:43:18;;;;;;;6.03;2.67;;;34.80;76.10;;;;;;5020471;28;20022;-63
2022/09/04 11:46:11;;;;;;;6.10;2.92;;;34.90;74.80;;;;;;5023494;28;20017;-63
2022/09/04 11:49:08;;;;;;;7.03;3.00;;;33.80;73.30;;;;;;5026251;28;20629;-63
2022/09/04 11:51:59;;;;;;;6.65;2.85;;;33.30;73.80;;;;;;5022052;28;20048;-63
2022/09/04 11:54:43;;;;;;;6.32;3.05;;;32.20;75.30;;;;;;5024769;28;20037;-63
2022/09/04 11:57:32;;;;;;;7.38;2.90;;;31.80;76.90;;;;;;5030156;28;20048;-63
2022/09/04 12:00:14;;;;;;;6.20;3.07;;;32.00;75.40;;;;;;5024625;28;20449;-63
2022/09/04 12:02:49;;;;;;;7.60;3.20;;;31.40;76.00;;;;;;5027994;28;20576;-63
2022/09/04 12:05:18;;;;;;;7.95;3.30;;;31.70;76.10;;;;;;5045193;28;20198;-63
2022/09/04 12:08:18;;;;;;;6.10;3.03;;;33.00;74.90;;;;;;5031277;28;20028;-64
2022/09/04 12:11:13;;;;;;;8.32;3.05;;;34.50;73.20;;;;;;5023841;28;20022;-64
2022/09/04 12:13:56;;;;;;;6.93;3.22;;;34.80;71.70;;;;;;5022797;28;20128;-64
2022/09/04 12:17:21;;;;;;;7.18;2.92;;;34.60;71.70;;;;;;5023028;28;20038;-64
2022/09/04 12:20:24;;;;;;;8.02;2.88;;;32.40;74.20;;;;;;4973994;28;20051;-63
2022/09/04 12:23:14;;;;;;;7.05;3.28;;;31.10;76.90;;;;;;5029009;28;20133;-63
2022/09/04 12:26:06;;;;;;;9.10;3.08;;;29.80;79.30;;;;;;5024022;28;20663;-63
2022/09/04 12:28:44;;;;;;;6.85;2.90;;;30.30;77.80;;;;;;5023660;28;20028;-63
2022/09/04 12:31:44;;;;;;;7.75;2.65;;;30.70;77.40;;;;;;5027887;28;20029;-63
2022/09/04 12:34:19;;;;;;;5.72;2.65;;;31.90;75.40;;;;;;5026502;28;20033;-63
2022/09/04 12:37:10;;;;;;;10.38;3.30;;;31.70;76.00;;;;;;5034538;28;20029;-63
2022/09/04 12:39:57;;;;;;;6.28;2.97;;;30.90;76.60;;;;;;5029198;28;20030;-63
2022/09/04 12:42:52;;;;;;;7.18;3.10;;;31.70;76.80;;;;;;5023759;28;20029;-64
2022/09/04 12:45:44;;;;;;;7.32;3.05;;;34.60;72.30;;;;;;5033413;28;20025;-64
2022/09/04 12:48:56;;;;;;;6.35;2.85;;;34.20;71.70;;;;;;5028774;28;20048;-64
2022/09/04 12:51:24;;;;;;;7.25;2.70;;;34.20;71.90;;;;;;5028380;28;20049;-64
2022/09/04 12:54:18;;;;;;;6.65;2.90;;;35.40;70.00;;;;;;5041401;28;20248;-64
2022/09/04 12:57:14;;;;;;;6.55;2.72;;;35.30;68.90;;;;;;5025265;28;20408;-64
2022/09/04 13:00:16;;;;;;;6.90;2.60;;;33.70;70.40;;;;;;5029853;28;20405;-63
2022/09/04 13:03:09;;;;;;;6.30;2.75;;;32.10;72.70;;;;;;5026871;28;20055;-63
2022/09/04 13:05:57;;;;;;;5.85;2.67;;;31.00;74.30;;;;;;5027174;28;20369;-63
2022/09/04 13:08:41;;;;;;;11.75;2.83;;;30.60;75.80;;;;;;5041255;28;20434;-63
2022/09/04 13:11:36;;;;;;;7.13;2.60;;;30.50;76.10;;;;;;5026077;28;20021;-63
2022/09/04 13:14:24;;;;;;;6.35;2.58;;;30.00;76.40;;;;;;5029521;28;20227;-63
2022/09/04 13:17:02;;;;;;;5.75;2.80;;;29.80;77.60;;;;;;5024395;28;20029;-63
2022/09/04 13:19:37;;;;;;;7.13;2.80;;;29.80;77.50;;;;;;5031719;28;20450;-63
2022/09/04 13:22:30;;;;;;;8.18;2.60;;;29.80;77.50;;;;;;5019955;28;20096;-63
2022/09/04 13:25:21;;;;;;;6.57;2.70;;;29.50;78.20;;;;;;5028530;28;20027;-63
2022/09/04 13:28:18;;;;;;;6.85;3.00;;;29.50;77.40;;;;;;5024890;28;20030;-64
2022/09/04 13:30:58;;;;;;;7.43;2.80;;;29.80;76.90;;;;;;5029481;28;20143;-63
2022/09/04 13:33:45;;;;;;;6.88;2.75;;;30.20;76.80;;;;;;5027873;28;20094;-64
2022/09/04 13:36:21;;;;;;;5.57;2.50;;;32.90;74.10;;;;;;5028806;28;20546;-63
2022/09/04 13:39:13;;;;;;;6.47;2.75;;;33.90;71.00;;;;;;5030617;28;20021;-64
2022/09/04 13:42:07;;;;;;;6.03;2.67;;;31.80;72.10;;;;;;5021290;28;20144;-64
2022/09/04 13:44:42;;;;;;;5.47;2.50;;;30.50;75.50;;;;;;5023546;28;20080;-64
2022/09/04 13:47:21;;;;;;;5.60;2.45;;;30.10;76.10;;;;;;5024389;28;20075;-64
2022/09/04 13:50:07;;;;;;;5.83;2.30;;;30.80;76.40;;;;;;5024216;28;20511;-64
2022/09/04 13:52:56;;;;;;;5.55;2.38;;;31.80;73.90;;;;;;5021312;28;20028;-64
2022/09/04 13:55:29;;;;;;;5.00;2.30;;;33.60;71.50;;;;;;5024884;28;20032;-64
2022/09/04 13:57:58;;;;;;;5.55;2.20;;;34.50;70.20;;;;;;5028302;28;20021;-64
2022/09/04 14:00:26;;;;;;;5.82;2.10;;;33.40;71.80;;;;;;5035152;28;20025;-64
2022/09/04 14:03:02;;;;;;;6.18;2.30;;;35.10;69.40;;;;;;5027939;28;20033;-64
2022/09/04 14:05:31;;;;;;;6.45;2.55;;;34.80;69.50;;;;;;5024285;28;20392;-64
2022/09/04 14:08:02;;;;;;;4.70;2.00;;;34.80;69.00;;;;;;5032408;28;20029;-64
2022/09/04 14:10:47;;;;;;;5.35;2.40;;;34.30;69.30;;;;;;5025897;28;20028;-64
2022/09/04 14:13:54;;;;;;;6.65;2.22;;;35.70;68.70;;;;;;5028556;28;20133;-64
2022/09/04 14:16:22;;;;;;;6.00;2.40;;;35.60;67.70;;;;;;5020253;28;20513;-63
2022/09/04 14:19:12;;;;;;;5.07;2.13;;;34.90;68.70;;;;;;5023174;28;20068;-64
2022/09/04 14:22:20;;;;;;;6.22;2.13;;;35.20;67.60;;;;;;5027927;28;20509;-64
2022/09/04 14:25:04;;;;;;;5.30;2.17;;;34.70;67.20;;;;;;5019649;28;20041;-63